createdAt,value
2018-08-23T00:00:03.536Z,96801.27
2018-08-23T00:02:32.917Z,96807.63
2018-08-23T00:05:00.132Z,96804.23
2018-08-23T00:07:27.285Z,96803.75
2018-08-23T00:09:54.404Z,96795.47
2018-08-23T00:12:26.993Z,96800.36
2018-08-23T00:14:54.170Z,96797.13
2018-08-23T00:17:21.268Z,96731.09
2018-08-23T00:19:48.428Z,96803.03
2018-08-23T00:22:21.282Z,96797.06
2018-08-23T00:24:48.387Z,96801.25
2018-08-23T00:27:20.098Z,96798.74
2018-08-23T00:29:47.241Z,96800.20
2018-08-23T00:32:21.164Z,96801.20
2018-08-23T00:34:48.294Z,96812.41
2018-08-23T00:37:15.420Z,96800.21
2018-08-23T00:39:42.585Z,96798.61
2018-08-23T00:42:11.195Z,96803.97
2018-08-23T00:44:57.264Z,96797.63
2018-08-23T00:47:30.381Z,96802.49
2018-08-23T00:49:57.549Z,96801.48
2018-08-23T00:52:44.561Z,96801.12
2018-08-23T00:55:31.200Z,96793.73
2018-08-23T00:57:58.492Z,96804.44
2018-08-23T01:00:27.578Z,96799.13
2018-08-23T01:03:00.600Z,96803.34
2018-08-23T01:05:33.488Z,96799.64
2018-08-23T01:08:00.623Z,96794.09
2018-08-23T01:10:27.729Z,96800.36
2018-08-23T01:12:57.072Z,96802.66
2018-08-23T01:15:24.241Z,96802.63
2018-08-23T01:18:04.305Z,96806.01
2018-08-23T01:20:31.515Z,96795.86
2018-08-23T01:23:00.632Z,96798.95
2018-08-23T01:25:30.947Z,96797.92
2018-08-23T01:27:58.065Z,96799.08
2018-08-23T01:30:25.200Z,96790.08
2018-08-23T01:32:52.355Z,96788.56
2018-08-23T01:35:19.527Z,96784.89
2018-08-23T01:37:46.689Z,96787.36
2018-08-23T01:40:13.840Z,96780.64
2018-08-23T01:42:41.628Z,96779.78
2018-08-23T01:45:10.201Z,96776.44
2018-08-23T01:48:11.000Z,96785.34
2018-08-23T01:50:38.226Z,96782.27
2018-08-23T01:53:05.460Z,96776.36
2018-08-23T01:55:32.608Z,96778.34
2018-08-23T01:57:59.812Z,96774.80
2018-08-23T02:00:29.066Z,96774.66
2018-08-23T02:02:56.186Z,96771.44
2018-08-23T02:05:23.413Z,96775.14
2018-08-23T02:07:50.591Z,96776.56
2018-08-23T02:10:17.773Z,96780.17
2018-08-23T02:12:52.916Z,96780.62
2018-08-23T02:15:20.294Z,96779.55
2018-08-23T02:17:52.823Z,96778.94
2018-08-23T02:20:20.555Z,96770.56
2018-08-23T02:22:47.724Z,96764.65
2018-08-23T02:25:14.863Z,96770.36
2018-08-23T02:27:56.668Z,96771.23
2018-08-23T02:30:38.618Z,96767.58
2018-08-23T02:33:05.789Z,96769.09
2018-08-23T02:35:32.943Z,96767.03
2018-08-23T02:38:00.127Z,96762.48
2018-08-23T02:40:27.249Z,96763.10
2018-08-23T02:42:54.384Z,96762.52
2018-08-23T02:45:21.611Z,96766.70
2018-08-23T02:47:48.748Z,96765.08
2018-08-23T02:50:15.921Z,96763.66
2018-08-23T02:52:43.072Z,96761.93
2018-08-23T02:55:10.193Z,96761.93
2018-08-23T02:57:41.908Z,96754.39
2018-08-23T03:00:09.055Z,96763.08
2018-08-23T03:02:36.300Z,96761.72
2018-08-23T03:05:04.491Z,96758.20
2018-08-23T03:07:31.648Z,96752.89
2018-08-23T03:09:58.820Z,96751.70
2018-08-23T03:12:25.966Z,96749.67
2018-08-23T03:14:53.105Z,96750.08
2018-08-23T03:17:22.500Z,96748.61
2018-08-23T03:20:25.413Z,96754.54
2018-08-23T03:22:54.746Z,96751.75
2018-08-23T03:25:23.042Z,96746.97
2018-08-23T03:27:51.836Z,96750.80
2018-08-23T03:30:19.508Z,96750.45
2018-08-23T03:32:46.631Z,96749.70
2018-08-23T03:35:13.756Z,96750.58
2018-08-23T03:37:40.905Z,96748.21
2018-08-23T03:40:09.017Z,96743.50
2018-08-23T03:42:36.140Z,96752.14
2018-08-23T03:45:04.206Z,96749.67
2018-08-23T03:47:38.494Z,96752.89
2018-08-23T03:50:06.549Z,96754.54
2018-08-23T03:52:37.674Z,96755.99
2018-08-23T03:55:06.306Z,96748.86
2018-08-23T03:57:39.062Z,96744.15
2018-08-23T04:00:06.207Z,96748.45
2018-08-23T04:02:33.397Z,96756.11
2018-08-23T04:05:10.409Z,96752.76
2018-08-23T04:07:38.613Z,96758.08
2018-08-23T04:10:05.813Z,96757.52
2018-08-23T04:12:34.769Z,96760.41
2018-08-23T04:15:14.417Z,96760.14
2018-08-23T04:17:41.528Z,96760.59
2018-08-23T04:20:08.692Z,96757.62
2018-08-23T04:22:35.821Z,96758.76
2018-08-23T04:25:03.414Z,96752.70
2018-08-23T04:27:30.573Z,96755.99
2018-08-23T04:29:57.717Z,96749.82
2018-08-23T04:32:30.576Z,96755.70
2018-08-23T04:34:59.211Z,96753.73
2018-08-23T04:37:26.808Z,96752.66
2018-08-23T04:39:59.444Z,96752.51
2018-08-23T04:42:26.616Z,96755.52
2018-08-23T04:44:53.732Z,96749.89
2018-08-23T04:47:21.620Z,96752.13
2018-08-23T04:49:48.748Z,96757.06
2018-08-23T04:52:15.921Z,96752.41
2018-08-23T04:54:43.066Z,96760.36
2018-08-23T04:57:10.349Z,96753.98
2018-08-23T04:59:37.497Z,96746.95
2018-08-23T05:02:04.845Z,96751.84
2018-08-23T05:04:32.032Z,96757.67
2018-08-23T05:06:59.169Z,96750.19
2018-08-23T05:09:26.292Z,96753.94
2018-08-23T05:11:53.476Z,96757.28
2018-08-23T05:14:20.616Z,96748.55
2018-08-23T05:16:47.733Z,96751.44
2018-08-23T05:19:14.958Z,96759.39
2018-08-23T05:21:42.089Z,96754.97
2018-08-23T05:24:11.651Z,96755.60
2018-08-23T05:26:38.891Z,96755.34
2018-08-23T05:29:07.355Z,96756.85
2018-08-23T05:31:34.581Z,96759.97
2018-08-23T05:34:02.935Z,96758.30
2018-08-23T05:36:30.237Z,96758.73
2018-08-23T05:38:57.427Z,96758.01
2018-08-23T05:41:24.568Z,96756.51
2018-08-23T05:44:10.744Z,96769.59
2018-08-23T05:46:40.663Z,96760.06
2018-08-23T05:49:07.776Z,96764.95
2018-08-23T05:51:38.952Z,96756.98
2018-08-23T05:54:06.136Z,96755.80
2018-08-23T05:56:33.332Z,96751.59
2018-08-23T05:59:06.304Z,96754.09
2018-08-23T06:01:33.516Z,96754.39
2018-08-23T06:04:00.649Z,96749.29
2018-08-23T06:06:28.384Z,96754.25
2018-08-23T06:08:59.361Z,96752.78
2018-08-23T06:11:26.529Z,96755.38
2018-08-23T06:13:53.633Z,96753.08
2018-08-23T06:16:20.737Z,96752.80
2018-08-23T06:18:54.691Z,96749.62
2018-08-23T06:21:21.862Z,96746.59
2018-08-23T06:23:51.972Z,96743.77
2018-08-23T06:26:19.963Z,96744.80
2018-08-23T06:28:47.160Z,96742.79
2018-08-23T06:31:14.289Z,96750.22
2018-08-23T06:33:47.274Z,96748.59
2018-08-23T06:36:14.286Z,96752.53
2018-08-23T06:38:46.025Z,96752.34
2018-08-23T06:41:13.105Z,96756.39
2018-08-23T06:43:40.262Z,96745.66
2018-08-23T06:46:07.471Z,96743.17
2018-08-23T06:48:34.541Z,96750.08
2018-08-23T06:51:02.691Z,96747.37
2018-08-23T06:53:39.392Z,96743.27
2018-08-23T06:56:06.546Z,96740.91
2018-08-23T06:58:33.810Z,96736.14
2018-08-23T07:01:03.356Z,96738.30
2018-08-23T07:03:30.575Z,96734.38
2018-08-23T07:05:57.768Z,96730.77
2018-08-23T07:08:24.910Z,96729.22
2018-08-23T07:11:00.268Z,96731.81
2018-08-23T07:13:27.416Z,96733.73
2018-08-23T07:15:59.069Z,96741.30
2018-08-23T07:18:26.549Z,96741.17
2018-08-23T07:20:53.655Z,96739.48
2018-08-23T07:23:30.300Z,96745.07
2018-08-23T07:25:57.441Z,96746.77
2018-08-23T07:28:24.592Z,96742.36
2018-08-23T07:30:53.108Z,96737.17
2018-08-23T07:33:20.269Z,96743.61
2018-08-23T07:35:53.276Z,96749.20
2018-08-23T07:38:20.419Z,96745.31
2018-08-23T07:40:47.608Z,96747.25
2018-08-23T07:43:14.784Z,96742.30
2018-08-23T07:45:41.950Z,96740.20
2018-08-23T07:48:09.128Z,96750.97
2018-08-23T07:50:36.316Z,96745.34
2018-08-23T07:53:03.486Z,96747.48
2018-08-23T07:55:30.636Z,96748.36
2018-08-23T07:57:57.758Z,96745.98
2018-08-23T08:00:25.680Z,96745.70
2018-08-23T08:02:52.950Z,96747.86
2018-08-23T08:05:20.141Z,96741.38
2018-08-23T08:07:47.490Z,96737.72
2018-08-23T08:10:21.468Z,96744.34
2018-08-23T08:12:48.616Z,96742.69
2018-08-23T08:15:15.936Z,96741.20
2018-08-23T08:17:42.949Z,96738.45
2018-08-23T08:20:10.413Z,96740.86
2018-08-23T08:22:37.627Z,96736.50
2018-08-23T08:25:19.873Z,96737.92
2018-08-23T08:27:48.148Z,96737.59
2018-08-23T08:30:16.772Z,96737.55
2018-08-23T08:32:44.312Z,96732.28
2018-08-23T08:35:15.380Z,96733.14
2018-08-23T08:37:42.896Z,96742.67
2018-08-23T08:40:18.714Z,96739.67
2018-08-23T08:42:45.868Z,96736.77
2018-08-23T08:45:13.376Z,96727.80
2018-08-23T08:47:41.971Z,96731.94
2018-08-23T08:50:09.179Z,96727.59
2018-08-23T08:52:36.313Z,96723.42
2018-08-23T08:55:05.788Z,96720.27
2018-08-23T08:57:32.922Z,96721.14
2018-08-23T09:00:00.698Z,96719.70
2018-08-23T09:02:30.081Z,96715.58
2018-08-23T09:04:57.168Z,96706.94
2018-08-23T09:07:27.536Z,96716.50
2018-08-23T09:09:54.678Z,96715.41
2018-08-23T09:12:21.861Z,96708.91
2018-08-23T09:14:49.029Z,96705.27
2018-08-23T09:17:33.281Z,96707.33
2018-08-23T09:20:06.293Z,96705.97
2018-08-23T09:22:36.360Z,96694.70
2018-08-23T09:25:05.572Z,96702.34
2018-08-23T09:27:32.697Z,96697.41
2018-08-23T09:29:59.832Z,96694.52
2018-08-23T09:32:28.149Z,96690.75
2018-08-23T09:34:57.295Z,96666.33
2018-08-23T09:37:24.521Z,96682.64
2018-08-23T09:39:51.693Z,96687.69
2018-08-23T09:42:18.839Z,96680.02
2018-08-23T09:44:59.181Z,96675.44
2018-08-23T09:47:26.478Z,96668.11
2018-08-23T09:49:53.596Z,96672.48
2018-08-23T09:52:25.046Z,96669.20
2018-08-23T09:54:52.136Z,96665.71
2018-08-23T09:57:19.266Z,96660.06
2018-08-23T09:59:50.978Z,96658.07
2018-08-23T10:02:23.896Z,96653.33
2018-08-23T10:04:55.082Z,96642.41
2018-08-23T10:07:28.928Z,96642.53
2018-08-23T10:10:01.770Z,96633.32
2018-08-23T10:12:34.753Z,96643.48
2018-08-23T10:15:07.765Z,96635.72
2018-08-23T10:17:40.531Z,96633.14
2018-08-23T10:20:13.492Z,96638.31
2018-08-23T10:22:45.548Z,96634.51
2018-08-23T10:25:30.226Z,96618.70
2018-08-23T10:27:58.080Z,96620.98
2018-08-23T10:30:25.769Z,96617.50
2018-08-23T10:32:53.085Z,96618.87
2018-08-23T10:35:20.262Z,96620.71
2018-08-23T10:37:47.401Z,96618.98
2018-08-23T10:40:14.618Z,96624.94
2018-08-23T10:42:41.755Z,96621.88
2018-08-23T10:45:08.876Z,96636.62
2018-08-23T10:47:41.745Z,96628.42
2018-08-23T10:50:08.920Z,96624.96
2018-08-23T10:52:36.133Z,96628.73
2018-08-23T10:55:03.856Z,96629.20
2018-08-23T10:57:31.133Z,96630.41
2018-08-23T10:59:58.473Z,96635.05
2018-08-23T11:02:25.680Z,96632.52
2018-08-23T11:04:52.829Z,96642.87
2018-08-23T11:07:24.546Z,96652.53
2018-08-23T11:09:57.521Z,96661.41
2018-08-23T11:12:30.513Z,96658.73
2018-08-23T11:15:03.247Z,96669.61
2018-08-23T11:17:36.025Z,96669.47
2018-08-23T11:20:09.385Z,96678.20
2018-08-23T11:22:36.569Z,96678.77
2018-08-23T11:25:04.304Z,96669.40
2018-08-23T11:27:31.580Z,96675.15
2018-08-23T11:29:58.775Z,96675.44
2018-08-23T11:32:25.955Z,96676.25
2018-08-23T11:34:53.104Z,96680.91
2018-08-23T11:37:20.307Z,96677.56
2018-08-23T11:39:47.424Z,96670.41
2018-08-23T11:42:14.614Z,96669.81
2018-08-23T11:44:41.772Z,96671.02
2018-08-23T11:47:09.446Z,96667.47
2018-08-23T11:49:37.133Z,96672.15
2018-08-23T11:52:04.317Z,96669.60
2018-08-23T11:54:40.024Z,96666.22
2018-08-23T11:57:07.200Z,96668.53
2018-08-23T11:59:34.348Z,96663.55
2018-08-23T12:02:01.568Z,96666.95
2018-08-23T12:04:28.730Z,96664.50
2018-08-23T12:06:56.027Z,96669.31
2018-08-23T12:09:38.473Z,96669.83
2018-08-23T12:12:05.633Z,96683.14
2018-08-23T12:14:32.813Z,96677.87
2018-08-23T12:17:01.058Z,96683.03
2018-08-23T12:19:28.195Z,96679.47
2018-08-23T12:21:55.365Z,96688.33
2018-08-23T12:24:22.551Z,96688.20
2018-08-23T12:26:49.698Z,96690.28
2018-08-23T12:29:16.864Z,96695.44
2018-08-23T12:31:44.075Z,96696.38
2018-08-23T12:34:12.288Z,96698.09
2018-08-23T12:36:45.551Z,96704.94
2018-08-23T12:39:18.661Z,96685.02
2018-08-23T12:41:52.236Z,96689.08
2018-08-23T12:44:23.753Z,96696.44
2018-08-23T12:46:56.162Z,96690.98
2018-08-23T12:49:23.352Z,96682.21
2018-08-23T12:51:50.432Z,96683.78
2018-08-23T12:54:17.652Z,96683.61
2018-08-23T12:56:45.000Z,96674.33
2018-08-23T12:59:12.956Z,96672.82
2018-08-23T13:01:40.160Z,96666.77
2018-08-23T13:04:07.379Z,96655.33
2018-08-23T13:06:34.669Z,96646.63
2018-08-23T13:09:01.886Z,96638.61
2018-08-23T13:11:29.133Z,96631.61
2018-08-23T13:13:56.316Z,96624.34
2018-08-23T13:16:23.444Z,96619.53
2018-08-23T13:18:52.294Z,96611.06
2018-08-23T13:21:19.505Z,96610.67
2018-08-23T13:23:53.604Z,96607.84
2018-08-23T13:26:20.820Z,96596.83
2018-08-23T13:28:48.036Z,96600.38
2018-08-23T13:33:49.192Z,96596.80
2018-08-23T13:36:16.558Z,96593.48
2018-08-23T13:38:43.680Z,96597.44
2018-08-23T13:41:10.836Z,96597.38
2018-08-23T13:43:38.246Z,96595.90
2018-08-23T13:46:05.472Z,96591.19
2018-08-23T13:48:33.273Z,96590.24
2018-08-23T13:51:00.659Z,96587.72
2018-08-23T13:53:27.795Z,96584.66
2018-08-23T13:55:54.970Z,96582.53
2018-08-23T13:58:22.163Z,96575.05
2018-08-23T14:00:49.366Z,96571.56
2018-08-23T14:03:16.529Z,96564.91
2018-08-23T14:05:43.729Z,96559.98
2018-08-23T14:08:10.850Z,96554.44
2018-08-23T14:10:38.000Z,96557.63
2018-08-23T14:13:05.109Z,96556.10
2018-08-23T14:15:38.012Z,96553.64
2018-08-23T14:18:05.209Z,96546.57
2018-08-23T14:20:32.419Z,96543.42
2018-08-23T14:22:59.570Z,96550.06
2018-08-23T14:25:26.727Z,96540.00
2018-08-23T14:27:54.086Z,96539.71
2018-08-23T14:30:21.513Z,96536.23
2018-08-23T14:32:55.498Z,96534.31
2018-08-23T14:35:22.600Z,96536.71
2018-08-23T14:37:49.754Z,96532.15
2018-08-23T14:40:16.973Z,96532.61
2018-08-23T14:42:44.062Z,96530.28
2018-08-23T14:45:11.174Z,96519.96
2018-08-23T14:47:43.916Z,96520.72
2018-08-23T14:50:11.165Z,96516.15
2018-08-23T14:52:38.381Z,96513.73
2018-08-23T14:55:05.614Z,96511.20
2018-08-23T14:57:36.899Z,96507.89
2018-08-23T15:00:04.621Z,96504.32
2018-08-23T15:02:31.748Z,96506.44
2018-08-23T15:04:58.894Z,96510.65
2018-08-23T15:07:26.029Z,96513.55
2018-08-23T15:09:53.166Z,96516.27
2018-08-23T15:12:20.310Z,96514.26
2018-08-23T15:14:47.470Z,96518.44
2018-08-23T15:17:14.764Z,96520.72
2018-08-23T15:19:41.926Z,96519.86
2018-08-23T15:22:09.486Z,96519.93
2018-08-23T15:24:36.686Z,96520.74
2018-08-23T15:27:04.376Z,96513.31
2018-08-23T15:29:31.380Z,96518.41
2018-08-23T15:31:58.521Z,96517.70
2018-08-23T15:34:25.655Z,96518.23
2018-08-23T15:36:52.802Z,96516.27
2018-08-23T15:39:20.051Z,96512.72
2018-08-23T15:41:47.237Z,96513.70
2018-08-23T15:44:14.405Z,96519.49
2018-08-23T15:46:45.825Z,96515.31
2018-08-23T15:49:13.368Z,96512.39
2018-08-23T15:51:41.232Z,96509.45
2018-08-23T15:54:08.824Z,96509.61
2018-08-23T15:56:36.387Z,96511.03
2018-08-23T15:59:03.629Z,96501.87
2018-08-23T16:01:31.081Z,96505.94
2018-08-23T16:03:58.268Z,96501.53
2018-08-23T16:06:25.777Z,96503.81
2018-08-23T16:08:53.013Z,96504.62
2018-08-23T16:24:19.932Z,96499.52
2018-08-23T16:27:04.064Z,96472.27
2018-08-23T16:29:31.496Z,96476.67
2018-08-23T16:31:58.769Z,96479.87
2018-08-23T16:34:26.481Z,96479.34
2018-08-23T16:36:53.706Z,96480.20
2018-08-23T16:39:21.157Z,96475.77
2018-08-23T16:41:48.312Z,96460.85
2018-08-23T16:44:15.474Z,96470.77
2018-08-23T16:46:42.746Z,96478.09
2018-08-23T16:49:09.961Z,96477.88
2018-08-23T16:51:37.144Z,96481.09
2018-08-23T16:54:04.360Z,96479.30
2018-08-23T16:56:31.609Z,96478.38
2018-08-23T16:58:58.831Z,96475.80
2018-08-23T17:01:26.017Z,96469.01
2018-08-23T17:03:54.454Z,96467.18
2018-08-23T17:06:22.793Z,96466.76
2018-08-23T17:08:50.059Z,96459.05
2018-08-23T17:11:17.247Z,96461.54
2018-08-23T17:13:44.424Z,96464.73
2018-08-23T17:16:17.438Z,96460.57
2018-08-23T17:18:44.641Z,96456.05
2018-08-23T17:21:11.801Z,96456.61
2018-08-23T17:23:39.005Z,96453.03
2018-08-23T17:26:06.167Z,96451.49
2018-08-23T17:28:33.316Z,96446.66
2018-08-23T17:31:01.028Z,96449.67
2018-08-23T17:33:28.245Z,96442.77
2018-08-23T17:35:55.420Z,96440.29
2018-08-23T17:38:22.640Z,96437.28
2018-08-23T17:40:49.741Z,96432.31
2018-08-23T17:43:16.903Z,96428.91
2018-08-23T17:45:44.441Z,96428.70
2018-08-23T17:48:11.601Z,96434.13
2018-08-23T17:50:38.766Z,96437.51
2018-08-23T17:53:06.013Z,96432.78
2018-08-23T17:55:33.389Z,96440.56
2018-08-23T17:58:00.554Z,96436.39
2018-08-23T18:00:27.797Z,96445.70
2018-08-23T18:02:55.033Z,96442.91
2018-08-23T18:05:22.345Z,96443.81
2018-08-23T18:07:49.554Z,96446.28
2018-08-23T18:10:16.757Z,96441.26
2018-08-23T18:12:43.956Z,96457.50
2018-08-23T18:15:11.110Z,96455.43
2018-08-23T18:17:38.978Z,96460.36
2018-08-23T18:20:06.434Z,96462.77
2018-08-23T18:22:33.749Z,96467.00
2018-08-23T18:25:01.014Z,96468.78
2018-08-23T18:27:28.171Z,96467.55
2018-08-23T18:29:55.385Z,96468.75
2018-08-23T18:32:22.628Z,96464.34
2018-08-23T18:34:49.908Z,96467.20
2018-08-23T18:37:17.096Z,96463.42
2018-08-23T18:39:44.329Z,96450.74
2018-08-23T18:42:11.576Z,96455.20
2018-08-23T18:44:38.924Z,96457.80
2018-08-23T18:47:06.193Z,96456.97
2018-08-23T18:49:33.415Z,96461.66
2018-08-23T18:52:00.666Z,96463.17
2018-08-23T18:54:27.940Z,96459.51
2018-08-23T18:57:03.140Z,96465.14
2018-08-23T18:59:33.550Z,96477.13
2018-08-23T19:02:01.169Z,96473.27
2018-08-23T19:04:28.310Z,96475.56
2018-08-23T19:06:55.483Z,96465.48
2018-08-23T19:09:22.821Z,96473.91
2018-08-23T19:11:49.988Z,96479.53
2018-08-23T19:14:17.204Z,96473.91
2018-08-23T19:16:50.108Z,96472.79
2018-08-23T19:19:17.525Z,96476.98
2018-08-23T19:21:44.756Z,96481.06
2018-08-23T19:24:14.077Z,96483.00
2018-08-23T19:26:41.320Z,96488.44
2018-08-23T19:29:08.558Z,96486.87
2018-08-23T19:31:43.162Z,96487.45
2018-08-23T19:34:10.321Z,96488.75
2018-08-23T19:36:37.537Z,96490.45
2018-08-23T19:39:08.380Z,96481.82
2018-08-23T19:41:35.768Z,96483.58
2018-08-23T19:44:03.037Z,96483.05
2018-08-23T19:46:35.923Z,96484.84
2018-08-23T19:49:08.865Z,96486.73
2018-08-23T19:51:36.136Z,96497.51
2018-08-23T19:54:03.326Z,96497.69
2018-08-23T19:56:30.569Z,96501.86
2018-08-23T19:58:57.865Z,96495.36
2018-08-23T20:01:25.086Z,96496.81
2018-08-23T20:03:52.254Z,96491.89
2018-08-23T20:06:20.225Z,96494.08
2018-08-23T20:08:47.451Z,96487.47
2018-08-23T20:11:14.637Z,96496.86
2018-08-23T20:13:41.805Z,96493.80
2018-08-23T20:16:09.026Z,96492.73
2018-08-23T20:18:36.275Z,96491.61
2018-08-23T20:21:03.498Z,96492.89
2018-08-23T20:23:30.663Z,96490.53
2018-08-23T20:25:57.897Z,96494.31
2018-08-23T20:28:25.173Z,96485.79
2018-08-23T20:30:52.428Z,96487.84
2018-08-23T20:33:19.723Z,96495.77
2018-08-23T20:35:47.020Z,96496.47
2018-08-23T20:38:15.099Z,96487.84
2018-08-23T20:40:42.323Z,96490.91
2018-08-23T20:43:09.628Z,96491.34
2018-08-23T20:45:36.881Z,96490.53
2018-08-23T20:48:04.056Z,96491.80
2018-08-23T20:50:31.339Z,96494.63
2018-08-23T20:52:58.532Z,96495.20
2018-08-23T20:55:25.693Z,96500.98
2018-08-23T20:57:52.920Z,96506.68
2018-08-23T21:00:20.170Z,96513.48
2018-08-23T21:02:47.396Z,96515.91
2018-08-23T21:05:15.248Z,96516.63
2018-08-23T21:07:42.545Z,96512.84
2018-08-23T21:10:09.799Z,96517.23
2018-08-23T21:12:37.082Z,96517.66
2018-08-23T21:15:04.588Z,96519.02
2018-08-23T21:17:31.867Z,96520.88
2018-08-23T21:19:58.996Z,96523.95
2018-08-23T21:22:26.172Z,96523.19
2018-08-23T21:24:53.341Z,96525.68
2018-08-23T21:27:20.649Z,96521.28
2018-08-23T21:29:47.895Z,96523.34
2018-08-23T21:32:15.120Z,96525.83
2018-08-23T21:34:51.960Z,96526.39
2018-08-23T21:37:20.522Z,96529.45
2018-08-23T21:39:48.839Z,96523.73
2018-08-23T21:42:16.396Z,96524.05
2018-08-23T21:44:43.764Z,96529.04
2018-08-23T21:47:11.035Z,96521.87
2018-08-23T21:49:38.174Z,96521.82
2018-08-23T21:52:05.476Z,96522.19
2018-08-23T21:54:32.945Z,96513.93
2018-08-23T21:57:00.162Z,96511.08
2018-08-23T21:59:27.421Z,96498.94
2018-08-23T22:02:00.335Z,96491.86
2018-08-23T22:04:27.560Z,96487.40
2018-08-23T22:06:54.792Z,96477.77
2018-08-23T22:09:22.349Z,96481.56
2018-08-23T22:11:49.608Z,96483.64
2018-08-23T22:14:16.980Z,96482.08
2018-08-23T22:16:44.166Z,96429.36
2018-08-23T22:19:11.370Z,96479.95
2018-08-23T22:21:38.736Z,96476.13
2018-08-23T22:24:05.954Z,96477.33
2018-08-23T22:26:33.626Z,96477.66
2018-08-23T22:29:00.924Z,96467.08
2018-08-23T22:31:28.160Z,96474.79
2018-08-23T22:33:55.347Z,96472.06
2018-08-23T22:36:22.515Z,96470.00
2018-08-23T22:38:49.692Z,96472.86
2018-08-23T22:41:17.005Z,96469.02
2018-08-23T22:43:44.206Z,96464.19
2018-08-23T22:46:11.417Z,96469.22
2018-08-23T22:48:38.638Z,96470.54
2018-08-23T22:51:05.823Z,96469.61
2018-08-23T22:53:32.998Z,96466.72
2018-08-23T22:56:00.320Z,96468.24
2018-08-23T22:58:27.790Z,96470.34
2018-08-23T23:00:55.381Z,96466.31
2018-08-23T23:03:28.396Z,96468.19
2018-08-23T23:05:55.570Z,96482.57
2018-08-23T23:08:22.865Z,96475.00
2018-08-23T23:10:50.017Z,96481.31
2018-08-23T23:13:17.233Z,96487.50
2018-08-23T23:15:44.432Z,96487.86
2018-08-23T23:18:11.584Z,96478.28
2018-08-23T23:20:38.722Z,96467.14
2018-08-23T23:23:05.978Z,96468.30
2018-08-23T23:25:33.176Z,96468.70
2018-08-23T23:28:00.382Z,96469.25
2018-08-23T23:30:27.589Z,96469.48
2018-08-23T23:32:54.772Z,96477.91
2018-08-23T23:35:21.981Z,96472.72
2018-08-23T23:37:49.181Z,96485.16
2018-08-23T23:40:16.392Z,96473.51
2018-08-23T23:42:50.704Z,96473.30
2018-08-23T23:45:17.828Z,96466.39
2018-08-23T23:47:45.175Z,96471.57
2018-08-23T23:50:12.497Z,96469.25
2018-08-23T23:52:39.620Z,96471.56
2018-08-23T23:55:06.799Z,96464.86
2018-08-23T23:57:33.950Z,96465.63
